createdAt,value
2019-02-15T00:01:32.993Z,101417.79
2019-02-15T00:04:00.797Z,101417.68
2019-02-15T00:06:28.629Z,101413.63
2019-02-15T00:08:56.444Z,101415.95
2019-02-15T00:11:24.276Z,101413.65
2019-02-15T00:13:52.090Z,101417.26
2019-02-15T00:16:19.878Z,101414.92
2019-02-15T00:19:19.349Z,101414.95
2019-02-15T00:21:49.667Z,101412.50
2019-02-15T00:24:17.475Z,101416.77
2019-02-15T00:26:45.301Z,101407.98
2019-02-15T00:29:13.226Z,101407.14
2019-02-15T00:31:41.061Z,101408.72
2019-02-15T00:34:08.861Z,101405.20
2019-02-15T00:36:36.692Z,101408.43
2019-02-15T00:39:05.966Z,101406.52
2019-02-15T00:41:33.846Z,101408.41
2019-02-15T00:44:01.687Z,101404.97
2019-02-15T00:46:42.563Z,101410.08
2019-02-15T00:49:16.000Z,101409.84
2019-02-15T00:52:12.412Z,101409.16
2019-02-15T00:54:59.777Z,101405.42
2019-02-15T00:57:50.391Z,101401.95
2019-02-15T01:00:55.619Z,101403.32
2019-02-15T01:03:42.448Z,101399.27
2019-02-15T01:06:30.716Z,101402.48
2019-02-15T01:09:18.156Z,101404.20
2019-02-15T01:12:11.320Z,101396.91
2019-02-15T01:14:39.099Z,101407.38
2019-02-15T01:17:07.024Z,101403.13
2019-02-15T01:19:34.865Z,101397.91
2019-02-15T01:22:02.652Z,101406.55
2019-02-15T01:24:30.455Z,101399.87
2019-02-15T01:27:01.407Z,101403.59
2019-02-15T01:29:47.381Z,101395.77
2019-02-15T01:32:41.662Z,101401.53
2019-02-15T01:35:31.376Z,101396.50
2019-02-15T01:38:18.907Z,101395.91
2019-02-15T01:41:04.217Z,101394.32
2019-02-15T01:43:54.594Z,101395.66
2019-02-15T01:46:29.279Z,101389.80
2019-02-15T01:48:57.065Z,101387.45
2019-02-15T01:51:24.857Z,101383.21
2019-02-15T01:53:52.634Z,101383.95
2019-02-15T01:56:20.430Z,101383.64
2019-02-15T01:58:48.241Z,101379.87
2019-02-15T02:01:20.885Z,101379.74
2019-02-15T02:03:48.700Z,101376.77
2019-02-15T02:06:17.081Z,101376.28
2019-02-15T02:08:44.837Z,101376.29
2019-02-15T02:11:32.041Z,101374.55
2019-02-15T02:13:59.866Z,101370.94
2019-02-15T02:16:27.698Z,101370.33
2019-02-15T02:18:55.735Z,101367.44
2019-02-15T02:21:23.525Z,101367.98
2019-02-15T02:23:51.364Z,101360.58
2019-02-15T02:26:19.118Z,101362.35
2019-02-15T02:28:52.026Z,101362.03
2019-02-15T02:31:19.768Z,101369.02
2019-02-15T02:33:48.689Z,101363.59
2019-02-15T02:36:16.443Z,101360.87
2019-02-15T02:38:49.336Z,101360.58
2019-02-15T02:41:34.606Z,101358.31
2019-02-15T02:44:16.257Z,101315.48
2019-02-15T02:46:44.103Z,101350.80
2019-02-15T02:49:11.980Z,101348.64
2019-02-15T02:51:39.779Z,101347.37
2019-02-15T02:54:07.564Z,101353.27
2019-02-15T02:56:35.351Z,101355.59
2019-02-15T02:59:03.101Z,101359.77
2019-02-15T03:01:30.887Z,101348.11
2019-02-15T03:03:58.710Z,101352.05
2019-02-15T03:06:26.527Z,101344.60
2019-02-15T03:08:54.698Z,101345.07
2019-02-15T03:11:22.460Z,101348.59
2019-02-15T03:13:50.248Z,101346.13
2019-02-15T03:16:18.049Z,101348.23
2019-02-15T03:18:46.039Z,101345.46
2019-02-15T03:21:13.845Z,101346.72
2019-02-15T03:23:41.658Z,101347.83
2019-02-15T03:26:09.479Z,101341.39
2019-02-15T03:28:37.284Z,101346.73
2019-02-15T03:31:05.096Z,101348.00
2019-02-15T03:33:32.974Z,101348.77
2019-02-15T03:36:03.087Z,101354.28
2019-02-15T03:38:59.350Z,101351.98
2019-02-15T03:41:30.196Z,101347.13
2019-02-15T03:43:58.016Z,101357.34
2019-02-15T03:46:25.882Z,101354.02
2019-02-15T03:48:53.697Z,101356.70
2019-02-15T03:51:21.470Z,101350.73
2019-02-15T03:53:49.299Z,101355.59
2019-02-15T03:56:17.072Z,101353.01
2019-02-15T03:58:44.854Z,101356.22
2019-02-15T04:01:12.611Z,101359.95
2019-02-15T04:03:40.430Z,101360.44
2019-02-15T04:06:08.275Z,101366.23
2019-02-15T04:08:41.233Z,101362.11
2019-02-15T04:11:09.046Z,101366.25
2019-02-15T04:13:37.148Z,101365.00
2019-02-15T04:16:04.916Z,101366.74
2019-02-15T04:18:32.890Z,101368.11
2019-02-15T04:21:00.684Z,101373.33
2019-02-15T04:23:28.616Z,101373.26
2019-02-15T04:25:56.495Z,101371.14
2019-02-15T04:28:25.584Z,101368.14
2019-02-15T04:30:54.626Z,101370.03
2019-02-15T04:33:22.451Z,101372.59
2019-02-15T04:35:50.277Z,101372.25
2019-02-15T04:38:23.300Z,101374.22
2019-02-15T04:40:51.092Z,101379.10
2019-02-15T04:43:18.876Z,101377.94
2019-02-15T04:45:46.727Z,101378.47
2019-02-15T04:48:18.730Z,101368.16
2019-02-15T04:50:46.531Z,101377.13
2019-02-15T04:53:14.262Z,101378.14
2019-02-15T04:55:42.108Z,101382.27
2019-02-15T04:58:10.043Z,101382.22
2019-02-15T05:00:37.845Z,101384.80
2019-02-15T05:03:05.669Z,101387.81
2019-02-15T05:05:33.495Z,101378.31
2019-02-15T05:08:01.426Z,101374.47
2019-02-15T05:10:29.272Z,101375.22
2019-02-15T05:12:57.099Z,101375.30
2019-02-15T05:15:24.921Z,101374.70
2019-02-15T05:17:52.785Z,101378.88
2019-02-15T05:20:20.535Z,101379.08
2019-02-15T05:22:48.358Z,101378.41
2019-02-15T05:25:16.190Z,101379.87
2019-02-15T05:27:44.111Z,101378.20
2019-02-15T05:30:11.958Z,101378.05
2019-02-15T05:32:39.704Z,101377.34
2019-02-15T05:35:07.584Z,101379.20
2019-02-15T05:37:35.390Z,101378.51
2019-02-15T05:40:03.406Z,101378.10
2019-02-15T05:42:31.169Z,101375.06
2019-02-15T05:45:03.538Z,101377.17
2019-02-15T05:47:28.666Z,101374.40
2019-02-15T05:49:56.506Z,101375.08
2019-02-15T05:52:24.347Z,101372.83
2019-02-15T05:54:52.119Z,101368.05
2019-02-15T05:57:19.907Z,101370.84
2019-02-15T05:59:47.702Z,101368.73
2019-02-15T06:02:15.516Z,101369.61
2019-02-15T06:04:43.304Z,101366.81
2019-02-15T06:07:41.621Z,101363.98
2019-02-15T06:10:28.842Z,101366.08
2019-02-15T06:12:56.955Z,101364.39
2019-02-15T06:15:24.771Z,101365.08
2019-02-15T06:17:52.870Z,101376.17
2019-02-15T06:20:20.707Z,101372.16
2019-02-15T06:22:48.536Z,101372.30
2019-02-15T06:25:16.339Z,101353.80
2019-02-15T06:27:45.456Z,101372.57
2019-02-15T06:30:13.233Z,101379.30
2019-02-15T06:33:00.485Z,101377.91
2019-02-15T06:35:28.324Z,101386.21
2019-02-15T06:37:56.133Z,101386.39
2019-02-15T06:40:23.923Z,101387.22
2019-02-15T06:42:51.715Z,101394.61
2019-02-15T06:45:24.888Z,101392.75
2019-02-15T06:47:49.416Z,101397.09
2019-02-15T06:50:17.199Z,101399.41
2019-02-15T06:52:45.038Z,101402.17
2019-02-15T06:55:12.798Z,101405.81
2019-02-15T06:57:40.806Z,101409.03
2019-02-15T07:00:31.901Z,101410.27
2019-02-15T07:03:08.955Z,101413.08
2019-02-15T07:05:36.773Z,101413.57
2019-02-15T07:08:05.003Z,101413.84
2019-02-15T07:10:32.879Z,101413.36
2019-02-15T07:13:01.027Z,101414.62
2019-02-15T07:15:33.879Z,101407.84
2019-02-15T07:17:58.504Z,101408.77
2019-02-15T07:20:26.393Z,101406.89
2019-02-15T07:22:54.262Z,101402.83
2019-02-15T07:25:22.111Z,101409.08
2019-02-15T07:27:49.951Z,101403.90
2019-02-15T07:30:17.744Z,101408.16
2019-02-15T07:32:45.520Z,101409.47
2019-02-15T07:35:13.327Z,101412.75
2019-02-15T07:37:41.133Z,101405.12
2019-02-15T07:40:09.366Z,101401.09
2019-02-15T07:42:37.210Z,101389.20
2019-02-15T07:45:06.412Z,101388.73
2019-02-15T07:47:34.264Z,101383.40
2019-02-15T07:50:02.211Z,101376.44
2019-02-15T07:52:29.978Z,101375.43
2019-02-15T07:54:57.749Z,101372.28
2019-02-15T07:57:25.545Z,101369.41
2019-02-15T07:59:53.353Z,101372.36
2019-02-15T08:02:21.149Z,101371.80
2019-02-15T08:04:48.949Z,101364.92
2019-02-15T08:07:16.735Z,101360.52
2019-02-15T08:09:44.592Z,101352.19
2019-02-15T08:12:12.421Z,101350.60
2019-02-15T08:14:40.251Z,101354.70
2019-02-15T08:17:08.091Z,101336.80
2019-02-15T08:19:35.921Z,101329.13
2019-02-15T08:22:03.764Z,101337.36
2019-02-15T08:24:31.568Z,101344.64
2019-02-15T08:26:59.648Z,101348.80
2019-02-15T08:29:27.446Z,101348.05
2019-02-15T08:31:55.245Z,101356.98
2019-02-15T08:34:23.130Z,101353.92
2019-02-15T08:36:56.080Z,101351.19
2019-02-15T08:39:24.143Z,101357.06
2019-02-15T08:42:01.273Z,101355.83
2019-02-15T08:44:21.671Z,101359.00
2019-02-15T08:46:49.742Z,101361.61
2019-02-15T08:49:17.547Z,101359.96
2019-02-15T08:51:45.353Z,101357.12
2019-02-15T08:54:13.194Z,101359.97
2019-02-15T08:56:46.341Z,101356.63
2019-02-15T08:59:14.119Z,101356.84
2019-02-15T09:01:41.939Z,101361.06
2019-02-15T09:04:09.722Z,101365.35
2019-02-15T09:06:37.498Z,101365.36
2019-02-15T09:09:06.418Z,101362.11
2019-02-15T09:11:34.192Z,101356.17
2019-02-15T09:14:02.016Z,101356.72
2019-02-15T09:16:30.679Z,101361.17
2019-02-15T09:18:58.503Z,101352.31
2019-02-15T09:21:26.344Z,101349.35
2019-02-15T09:23:54.141Z,101350.05
2019-02-15T09:26:21.904Z,101348.44
2019-02-15T09:28:54.340Z,101339.54
2019-02-15T09:31:22.150Z,101340.33
2019-02-15T09:33:49.915Z,101340.14
2019-02-15T09:36:17.718Z,101344.05
2019-02-15T09:38:45.753Z,101342.62
2019-02-15T09:41:25.721Z,101340.06
2019-02-15T09:43:55.530Z,101335.67
2019-02-15T09:46:24.425Z,101331.85
2019-02-15T09:48:52.339Z,101330.81
2019-02-15T09:51:20.212Z,101332.20
2019-02-15T09:53:48.061Z,101327.94
2019-02-15T09:56:15.884Z,101321.13
2019-02-15T09:58:43.786Z,101320.80
2019-02-15T10:01:11.637Z,101321.33
2019-02-15T10:03:39.422Z,101321.81
2019-02-15T10:06:07.238Z,101322.05
2019-02-15T10:08:35.157Z,101321.87
2019-02-15T10:11:02.995Z,101319.53
2019-02-15T10:13:30.796Z,101319.73
2019-02-15T10:15:58.783Z,101320.78
2019-02-15T10:18:26.859Z,101317.38
2019-02-15T10:20:54.680Z,101321.71
2019-02-15T10:23:25.262Z,101318.20
2019-02-15T10:26:12.575Z,101319.30
2019-02-15T10:28:45.312Z,101319.06
2019-02-15T10:31:13.181Z,101322.88
2019-02-15T10:33:41.011Z,101320.34
2019-02-15T10:36:08.844Z,101320.16
2019-02-15T10:38:36.644Z,101311.04
2019-02-15T10:41:04.763Z,101308.81
2019-02-15T10:43:32.673Z,101304.18
2019-02-15T10:46:00.576Z,101304.45
2019-02-15T10:48:28.470Z,101302.70
2019-02-15T10:50:56.277Z,101293.80
2019-02-15T10:53:24.038Z,101291.80
2019-02-15T10:55:51.898Z,101288.56
2019-02-15T10:58:26.412Z,101290.05
2019-02-15T11:00:54.653Z,101282.89
2019-02-15T11:03:22.427Z,101281.74
2019-02-15T11:05:50.280Z,101265.17
2019-02-15T11:08:18.045Z,101270.47
2019-02-15T11:10:45.927Z,101261.61
2019-02-15T11:13:13.720Z,101259.45
2019-02-15T11:15:41.594Z,101256.70
2019-02-15T11:18:09.787Z,101247.62
2019-02-15T11:20:37.612Z,101237.84
2019-02-15T11:23:05.431Z,101228.62
2019-02-15T11:25:33.252Z,101209.86
2019-02-15T11:28:01.141Z,101205.58
2019-02-15T11:30:29.008Z,101200.41
2019-02-15T11:32:56.844Z,101187.86
2019-02-15T11:35:24.673Z,101181.59
2019-02-15T11:38:07.831Z,101173.30
2019-02-15T11:40:35.636Z,101171.70
2019-02-15T11:43:03.466Z,101164.67
2019-02-15T11:45:31.303Z,101159.51
2019-02-15T11:47:59.102Z,101155.48
2019-02-15T11:50:26.910Z,101150.74
2019-02-15T11:52:54.764Z,101143.55
2019-02-15T11:55:22.574Z,101142.15
2019-02-15T11:57:50.540Z,101139.35
2019-02-15T12:00:23.249Z,101132.03
2019-02-15T12:02:51.219Z,101129.45
2019-02-15T12:05:19.052Z,101117.76
2019-02-15T12:07:47.460Z,101117.18
2019-02-15T12:10:15.239Z,101109.61
2019-02-15T12:12:43.089Z,101107.61
2019-02-15T12:15:10.910Z,101104.99
2019-02-15T12:17:46.131Z,101102.16
2019-02-15T12:20:13.923Z,101098.52
2019-02-15T12:22:41.730Z,101092.01
2019-02-15T12:25:09.628Z,101094.21
2019-02-15T12:27:38.130Z,101088.19
2019-02-15T12:30:08.000Z,101083.06
2019-02-15T12:32:35.870Z,101081.19
2019-02-15T12:35:03.705Z,101078.56
2019-02-15T12:37:31.757Z,101075.81
2019-02-15T12:40:01.601Z,101075.56
2019-02-15T12:42:29.470Z,101067.37
2019-02-15T12:44:58.539Z,101066.27
2019-02-15T12:47:27.112Z,101065.30
2019-02-15T12:49:55.794Z,101065.31
2019-02-15T12:52:23.703Z,101061.20
2019-02-15T12:54:51.484Z,101059.20
2019-02-15T12:57:21.471Z,101054.56
2019-02-15T12:59:49.347Z,101057.60
2019-02-15T13:02:17.614Z,101047.91
2019-02-15T13:04:45.766Z,101047.55
2019-02-15T13:07:13.758Z,101046.53
2019-02-15T13:09:41.563Z,101042.50
2019-02-15T13:12:09.329Z,101041.46
2019-02-15T13:14:37.351Z,101040.73
2019-02-15T13:17:05.416Z,101036.64
2019-02-15T13:19:33.227Z,101032.22
2019-02-15T13:22:01.048Z,101030.34
2019-02-15T13:24:31.845Z,101022.93
2019-02-15T13:26:59.862Z,101014.45
2019-02-15T13:29:27.662Z,101007.91
2019-02-15T13:31:55.502Z,101004.84
2019-02-15T13:34:23.269Z,100997.92
2019-02-15T13:36:51.155Z,100996.54
2019-02-15T13:39:18.931Z,100992.56
2019-02-15T13:41:46.711Z,100989.20
2019-02-15T13:44:14.495Z,100981.15
2019-02-15T13:46:42.326Z,100977.19
2019-02-15T13:49:10.197Z,100977.61
2019-02-15T13:51:38.050Z,100976.03
2019-02-15T13:54:05.794Z,100971.34
2019-02-15T13:56:33.586Z,100974.00
2019-02-15T13:59:01.403Z,100966.09
2019-02-15T14:01:29.187Z,100965.45
2019-02-15T14:03:56.984Z,100969.70
2019-02-15T14:06:24.760Z,100962.27
2019-02-15T14:08:52.588Z,100958.85
2019-02-15T14:11:20.370Z,100959.37
2019-02-15T14:13:48.139Z,100953.98
2019-02-15T14:16:15.899Z,100949.37
2019-02-15T14:18:43.852Z,100948.41
2019-02-15T14:21:11.678Z,100949.14
2019-02-15T14:23:39.455Z,100944.18
2019-02-15T14:26:07.273Z,100939.70
2019-02-15T14:28:35.102Z,100939.92
2019-02-15T14:31:02.892Z,100939.72
2019-02-15T14:33:30.662Z,100936.13
2019-02-15T14:35:58.456Z,100933.41
2019-02-15T14:38:31.830Z,100929.44
2019-02-15T14:40:59.704Z,100929.47
2019-02-15T14:43:27.527Z,100925.33
2019-02-15T14:45:55.341Z,100926.98
2019-02-15T14:48:23.127Z,100915.53
2019-02-15T14:50:51.209Z,100919.92
2019-02-15T14:53:19.050Z,100919.16
2019-02-15T14:55:46.887Z,100888.34
2019-02-15T14:58:19.788Z,100907.05
2019-02-15T15:00:47.621Z,100912.08
2019-02-15T15:03:15.432Z,100905.17
2019-02-15T15:05:43.295Z,100905.86
2019-02-15T15:08:16.366Z,100905.23
2019-02-15T15:10:44.174Z,100902.43
2019-02-15T15:13:11.962Z,100892.39
2019-02-15T15:15:39.740Z,100885.98
2019-02-15T15:18:38.168Z,100885.77
2019-02-15T15:21:06.046Z,100885.30
2019-02-15T15:23:33.905Z,100878.25
2019-02-15T15:26:11.404Z,100888.19
2019-02-15T15:28:31.440Z,100876.77
2019-02-15T15:30:59.243Z,100872.39
2019-02-15T15:33:27.041Z,100868.13
2019-02-15T15:35:54.861Z,100872.77
2019-02-15T15:38:22.650Z,100874.75
2019-02-15T15:40:50.531Z,100873.17
2019-02-15T15:43:18.326Z,100875.70
2019-02-15T15:45:46.202Z,100877.06
2019-02-15T15:48:22.486Z,100875.44
2019-02-15T15:50:43.724Z,100877.23
2019-02-15T15:53:11.505Z,100870.66
2019-02-15T15:55:39.306Z,100871.00
2019-02-15T15:58:07.091Z,100867.11
2019-02-15T16:00:39.039Z,100873.47
2019-02-15T16:03:04.827Z,100870.89
2019-02-15T16:05:32.661Z,100883.47
2019-02-15T16:08:00.514Z,100890.93
2019-02-15T16:10:28.312Z,100889.16
2019-02-15T16:12:56.134Z,100893.12
2019-02-15T16:15:23.933Z,100893.84
2019-02-15T16:17:52.203Z,100896.15
2019-02-15T16:20:20.054Z,100892.34
2019-02-15T16:22:48.052Z,100892.15
2019-02-15T16:25:16.013Z,100889.25
2019-02-15T16:27:43.833Z,100893.03
2019-02-15T16:30:11.827Z,100897.28
2019-02-15T16:32:39.600Z,100900.17
2019-02-15T16:35:07.701Z,100898.56
2019-02-15T16:37:40.790Z,100900.27
2019-02-15T16:40:11.889Z,100900.55
2019-02-15T16:42:39.733Z,100904.39
2019-02-15T16:45:09.813Z,100909.55
2019-02-15T16:47:37.600Z,100911.74
2019-02-15T16:50:05.531Z,100911.81
2019-02-15T16:52:33.291Z,100919.98
2019-02-15T16:55:01.417Z,100916.33
2019-02-15T16:57:34.515Z,100919.27
2019-02-15T17:00:02.437Z,100922.06
2019-02-15T17:02:30.204Z,100930.22
2019-02-15T17:04:58.035Z,100927.27
2019-02-15T17:07:25.896Z,100932.73
2019-02-15T17:09:53.676Z,100934.81
2019-02-15T17:12:21.485Z,100928.70
2019-02-15T17:14:49.307Z,100930.09
2019-02-15T17:17:17.281Z,100929.02
2019-02-15T17:19:45.030Z,100930.28
2019-02-15T17:22:12.875Z,100937.52
2019-02-15T17:24:40.716Z,100936.32
2019-02-15T17:27:09.931Z,100940.26
2019-02-15T17:29:37.751Z,100943.21
2019-02-15T17:32:05.575Z,100938.56
2019-02-15T17:34:33.374Z,100939.20
2019-02-15T17:37:06.727Z,100938.69
2019-02-15T17:39:34.524Z,100936.66
2019-02-15T17:42:02.334Z,100941.67
2019-02-15T17:44:30.150Z,100941.51
2019-02-15T17:46:58.135Z,100944.28
2019-02-15T17:49:25.905Z,100950.03
2019-02-15T17:51:53.767Z,100948.26
2019-02-15T17:54:21.602Z,100942.09
2019-02-15T17:56:49.562Z,100943.77
2019-02-15T17:59:17.352Z,100942.37
2019-02-15T18:01:45.197Z,100938.16
2019-02-15T18:04:32.413Z,100947.11
2019-02-15T18:07:00.280Z,100945.58
2019-02-15T18:09:28.094Z,100943.19
2019-02-15T18:11:55.918Z,100948.28
2019-02-15T18:14:24.943Z,100944.02
2019-02-15T18:16:52.788Z,100947.76
2019-02-15T18:19:20.603Z,100949.60
2019-02-15T18:21:48.354Z,100952.58
2019-02-15T18:24:16.227Z,100948.93
2019-02-15T18:26:44.124Z,100957.00
2019-02-15T18:29:11.945Z,100955.47
2019-02-15T18:31:39.788Z,100949.20
2019-02-15T18:34:07.631Z,100949.86
2019-02-15T18:36:35.445Z,100952.41
2019-02-15T18:39:04.303Z,100950.36
2019-02-15T18:41:32.095Z,100939.49
2019-02-15T18:43:59.970Z,100942.89
2019-02-15T18:46:27.844Z,100935.83
2019-02-15T18:49:00.987Z,100942.59
2019-02-15T18:51:28.785Z,100940.06
2019-02-15T18:53:56.576Z,100939.99
2019-02-15T18:56:24.328Z,100941.76
2019-02-15T18:58:52.493Z,100945.48
2019-02-15T19:01:20.327Z,100949.19
2019-02-15T19:03:48.200Z,100941.59
2019-02-15T19:06:16.011Z,100942.23
2019-02-15T19:08:54.145Z,100941.67
2019-02-15T19:11:21.984Z,100942.02
2019-02-15T19:13:49.825Z,100939.45
2019-02-15T19:16:17.692Z,100939.27
2019-02-15T19:18:45.728Z,100941.08
2019-02-15T19:21:13.529Z,100939.42
2019-02-15T19:23:42.487Z,100938.02
2019-02-15T19:26:10.434Z,100944.73
2019-02-15T19:28:43.573Z,100937.02
2019-02-15T19:31:11.444Z,100937.81
2019-02-15T19:33:39.293Z,100938.55
2019-02-15T19:36:07.448Z,100931.92
2019-02-15T19:38:35.613Z,100932.26
2019-02-15T19:41:03.499Z,100930.92
2019-02-15T19:43:31.534Z,100932.95
2019-02-15T19:45:59.580Z,100928.81
2019-02-15T19:48:27.535Z,100930.77
2019-02-15T19:50:55.404Z,100931.43
2019-02-15T19:53:23.272Z,100933.14
2019-02-15T19:55:51.149Z,100928.34
2019-02-15T19:58:19.161Z,100924.56
2019-02-15T20:00:51.097Z,100927.90
2019-02-15T20:03:18.966Z,100934.94
2019-02-15T20:05:46.910Z,100934.48
2019-02-15T20:08:28.865Z,100934.81
2019-02-15T20:11:02.906Z,100937.86
2019-02-15T20:13:31.088Z,100937.53
2019-02-15T20:15:59.226Z,100935.83
2019-02-15T20:18:27.419Z,100932.94
2019-02-15T20:20:55.444Z,100935.41
2019-02-15T20:23:23.293Z,100929.95
2019-02-15T20:25:51.131Z,100933.94
2019-02-15T20:28:18.977Z,100938.44
2019-02-15T20:30:46.831Z,100935.02
2019-02-15T20:33:34.181Z,100935.29
2019-02-15T20:36:02.102Z,100934.92
2019-02-15T20:38:30.073Z,100933.03
2019-02-15T20:40:57.925Z,100931.69
2019-02-15T20:43:25.829Z,100933.83
2019-02-15T20:45:53.735Z,100935.20
2019-02-15T20:48:22.107Z,100932.11
2019-02-15T20:50:50.078Z,100940.41
2019-02-15T20:53:17.922Z,100934.79
2019-02-15T20:55:45.750Z,100934.82
2019-02-15T20:58:14.799Z,100932.80
2019-02-15T21:00:42.676Z,100929.13
2019-02-15T21:03:12.445Z,100926.97
2019-02-15T21:05:40.290Z,100922.70
2019-02-15T21:08:08.149Z,100920.98
2019-02-15T21:10:36.006Z,100915.69
2019-02-15T21:13:07.130Z,100915.02
2019-02-15T21:15:35.021Z,100920.37
2019-02-15T21:18:02.873Z,100917.02
2019-02-15T21:20:30.759Z,100913.52
2019-02-15T21:22:58.665Z,100914.63
2019-02-15T21:25:29.522Z,100917.28
2019-02-15T21:27:57.372Z,100917.95
2019-02-15T21:30:28.297Z,100918.09
2019-02-15T21:32:56.168Z,100921.45
2019-02-15T21:35:24.043Z,100921.92
2019-02-15T21:37:52.854Z,100922.69
2019-02-15T21:40:20.712Z,100918.97
2019-02-15T21:42:48.605Z,100922.26
2019-02-15T21:45:16.425Z,100919.73
2019-02-15T21:47:44.250Z,100921.56
2019-02-15T21:50:17.197Z,100915.84
2019-02-15T21:52:44.164Z,100909.30
2019-02-15T21:55:11.811Z,100908.16
2019-02-15T21:57:39.634Z,100910.16
2019-02-15T22:00:11.509Z,100904.44
2019-02-15T22:02:39.305Z,100903.41
2019-02-15T22:05:07.276Z,100904.84
2019-02-15T22:07:35.108Z,100900.24
2019-02-15T22:10:03.300Z,100893.72
2019-02-15T22:12:38.272Z,100897.89
2019-02-15T22:15:09.889Z,100900.79
2019-02-15T22:17:39.443Z,100903.70
2019-02-15T22:20:09.469Z,100894.21
2019-02-15T22:22:37.339Z,100892.95
2019-02-15T22:25:05.342Z,100883.72
2019-02-15T22:27:38.393Z,100885.70
2019-02-15T22:30:09.262Z,100888.81
2019-02-15T22:32:37.203Z,100882.56
2019-02-15T22:35:05.358Z,100885.06
2019-02-15T22:37:33.222Z,100885.09
2019-02-15T22:40:31.143Z,100881.25
2019-02-15T22:43:12.460Z,100884.05
2019-02-15T22:45:40.286Z,100885.86
2019-02-15T22:48:13.329Z,100884.04
2019-02-15T22:50:41.243Z,100889.09
2019-02-15T22:53:09.017Z,100885.67
2019-02-15T22:55:36.780Z,100889.48
2019-02-15T22:58:12.577Z,100886.75
2019-02-15T23:00:48.678Z,100886.27
2019-02-15T23:03:26.984Z,100884.00
2019-02-15T23:05:55.125Z,100882.81
2019-02-15T23:08:23.083Z,100886.41
2019-02-15T23:10:50.914Z,100887.38
2019-02-15T23:13:18.745Z,100889.28
2019-02-15T23:15:46.546Z,100885.80
2019-02-15T23:18:14.466Z,100891.19
2019-02-15T23:20:45.333Z,100897.86
2019-02-15T23:23:12.053Z,100888.88
2019-02-15T23:25:39.806Z,100893.25
2019-02-15T23:28:07.649Z,100891.44
2019-02-15T23:30:35.492Z,100889.95
2019-02-15T23:33:03.442Z,100885.27
2019-02-15T23:35:31.300Z,100880.02
2019-02-15T23:37:59.324Z,100889.13
2019-02-15T23:40:27.124Z,100887.69
2019-02-15T23:42:54.964Z,100890.44
2019-02-15T23:45:22.780Z,100888.28
2019-02-15T23:47:50.605Z,100881.88
2019-02-15T23:50:18.472Z,100881.84
2019-02-15T23:52:46.331Z,100881.27
2019-02-15T23:55:14.160Z,100877.27
2019-02-15T23:57:41.961Z,100873.88
